Time;durP1;ratioP1;P1;durP2;ratioP2;P2;SDS_P1;SDS_P2;PMS_P1;PMS_P2;Temp;Humidity;BMP_temperature;BMP_pressure;BME280_temperature;BME280_humidity;BME280_pressure;Samples;Min_cycle;Max_cycle;Signal;HPM_P1;HPM_P2
2022/03/17 00:01:37;;;;;;;;;;;;;;;14.57;51.18;100948.88;6112282;23;6770;-76
2022/03/17 00:04:03;;;;;;;;;;;;;;;14.57;50.14;100953.16;6108963;23;7017;-76
2022/03/17 00:06:28;;;;;;;;;;;;;;;14.56;50.57;100951.41;6111868;23;6762;-76
2022/03/17 00:08:54;;;;;;;;;;;;;;;14.55;50.96;100952.22;6109337;23;6779;-76
2022/03/17 00:11:20;;;;;;;;;;;;;;;14.55;51.31;100955.66;6111118;23;6917;-76
2022/03/17 00:13:46;;;;;;;;;;;;;;;14.53;50.54;100957.31;6110645;23;6778;-76
2022/03/17 00:16:12;;;;;;;;;;;;;;;14.51;51.16;100948.63;6110324;23;6770;-76
2022/03/17 00:18:38;;;;;;;;;;;;;;;14.51;50.80;100953.78;6110461;23;6795;-76
2022/03/17 00:21:04;;;;;;;;;;;;;;;14.50;51.37;100944.31;6112251;23;6927;-76
2022/03/17 00:23:30;;;;;;;;;;;;;;;14.50;51.68;100946.00;6112318;23;6978;-76
2022/03/17 00:25:56;;;;;;;;;;;;;;;14.48;50.60;100943.34;6112175;23;6782;-76
2022/03/17 00:28:22;;;;;;;;;;;;;;;14.50;51.48;100940.81;6113354;23;6960;-76
2022/03/17 00:30:48;;;;;;;;;;;;;;;14.48;51.47;100939.88;6110031;23;6928;-76
2022/03/17 00:33:13;;;;;;;;;;;;;;;14.49;51.44;100936.50;6109987;23;6794;-76
2022/03/17 00:35:42;;;;;;;;;;;;;;;14.50;50.64;100943.41;6112220;23;6794;-76
2022/03/17 00:38:14;;;;;;;;;;;;;;;14.50;50.97;100944.31;6112461;23;6952;-76
2022/03/17 00:40:43;;;;;;;;;;;;;;;14.50;51.25;100936.56;6087095;23;7111;-76
2022/03/17 00:43:12;;;;;;;;;;;;;;;14.51;50.87;100946.06;6087111;23;6779;-76
2022/03/17 00:45:45;;;;;;;;;;;;;;;14.51;51.16;100942.59;6086285;23;6974;-76
2022/03/17 00:48:11;;;;;;;;;;;;;;;14.50;51.53;100944.31;6113072;23;7039;-76
2022/03/17 00:50:37;;;;;;;;;;;;;;;14.48;50.94;100940.75;6086815;23;6897;-76
2022/03/17 00:53:04;;;;;;;;;;;;;;;14.47;50.90;100943.28;6085733;23;7042;-76
2022/03/17 00:55:30;;;;;;;;;;;;;;;14.45;51.70;100938.06;6110307;23;7095;-76
2022/03/17 00:57:56;;;;;;;;;;;;;;;14.46;51.34;100936.38;6110078;23;7133;-76
2022/03/17 01:00:23;;;;;;;;;;;;;;;14.44;52.26;100933.72;6083670;23;7209;-76
2022/03/17 01:02:53;;;;;;;;;;;;;;;14.44;51.21;100938.88;6135387;23;8044;-76
2022/03/17 01:05:20;;;;;;;;;;;;;;;14.43;52.05;100943.16;6112300;23;6782;-76
2022/03/17 01:07:47;;;;;;;;;;;;;;;14.42;52.10;100930.22;6111545;23;6779;-76
2022/03/17 01:10:17;;;;;;;;;;;;;;;14.39;52.10;100933.53;6112369;23;7855;-76
2022/03/17 01:12:46;;;;;;;;;;;;;;;14.38;52.03;100942.09;6110140;23;6831;-76
2022/03/17 01:15:15;;;;;;;;;;;;;;;14.39;52.07;100935.22;6110018;23;6783;-76
2022/03/17 01:17:41;;;;;;;;;;;;;;;14.37;52.02;100942.03;6110236;23;7078;-76
2022/03/17 01:20:09;;;;;;;;;;;;;;;14.38;52.30;100939.50;6109505;23;6919;-76
2022/03/17 01:22:35;;;;;;;;;;;;;;;14.36;52.30;100945.41;6110984;23;6867;-76
2022/03/17 01:25:01;;;;;;;;;;;;;;;14.36;51.87;100950.56;6109920;23;6961;-76
2022/03/17 01:27:26;;;;;;;;;;;;;;;14.35;51.98;100959.13;6113303;23;6922;-76
2022/03/17 01:29:53;;;;;;;;;;;;;;;14.34;51.47;100949.63;6086057;23;7392;-76
2022/03/17 01:32:20;;;;;;;;;;;;;;;14.33;52.07;100960.78;6110370;23;6794;-76
2022/03/17 01:34:46;;;;;;;;;;;;;;;14.32;52.42;100959.88;6110757;23;6952;-76
2022/03/17 01:37:13;;;;;;;;;;;;;;;14.30;52.19;100957.25;6110446;23;7188;-76
2022/03/17 01:39:38;;;;;;;;;;;;;;;14.30;52.68;100954.69;6133969;23;7075;-76
2022/03/17 01:42:09;;;;;;;;;;;;;;;14.28;52.03;100952.84;6109463;23;6851;-76
2022/03/17 01:44:37;;;;;;;;;;;;;;;14.29;52.61;100954.59;6087393;23;6783;-76
2022/03/17 01:49:48;;;;;;;;;;;;;;;14.26;52.07;100955.34;6135380;23;7052;-76
2022/03/17 01:52:14;;;;;;;;;;;;;;;14.25;52.64;100953.59;6108507;23;6911;-76
2022/03/17 01:54:42;;;;;;;;;;;;;;;14.23;52.71;100955.22;6111107;23;6916;-76
2022/03/17 01:57:09;;;;;;;;;;;;;;;14.24;52.03;100954.41;6108160;23;7180;-76
2022/03/17 01:59:38;;;;;;;;;;;;;;;14.22;51.94;100956.06;6110424;23;6937;-76
2022/03/17 02:02:07;;;;;;;;;;;;;;;14.21;52.16;100951.72;6109069;23;7074;-76
2022/03/17 02:04:33;;;;;;;;;;;;;;;14.21;52.76;100955.97;6086956;23;7035;-76
2022/03/17 02:06:59;;;;;;;;;;;;;;;14.22;52.81;100956.06;6110332;23;6873;-76
2022/03/17 02:09:26;;;;;;;;;;;;;;;14.23;52.08;100954.34;6108632;23;7027;-76
2022/03/17 02:14:58;;;;;;;;;;;;;;;14.29;53.15;100950.34;6111144;23;6858;-76
2022/03/17 02:17:27;;;;;;;;;;;;;;;14.31;53.15;100942.66;6107725;23;6945;-76
2022/03/17 02:19:53;;;;;;;;;;;;;;;14.31;52.64;100947.81;6110147;23;7178;-76
2022/03/17 02:22:22;;;;;;;;;;;;;;;14.32;53.25;100948.69;6133752;23;6976;-76
2022/03/17 02:27:51;;;;;;;;;;;;;;;14.31;53.25;100942.66;6112616;23;6863;-76
2022/03/17 02:30:21;;;;;;;;;;;;;;;14.31;53.66;100940.06;6111102;23;6982;-76
2022/03/17 02:32:48;;;;;;;;;;;;;;;14.32;53.52;100943.53;6108401;23;7430;-76
2022/03/17 02:35:20;;;;;;;;;;;;;;;14.32;53.34;100943.53;6111136;23;6796;-76
2022/03/17 02:37:46;;;;;;;;;;;;;;;14.34;53.57;100942.81;6083399;23;7190;-76
2022/03/17 02:40:12;;;;;;;;;;;;;;;14.36;53.48;100943.75;6086729;23;7313;-75
2022/03/17 02:42:38;;;;;;;;;;;;;;;14.40;53.10;100945.59;6084842;23;7126;-76
2022/03/17 02:45:07;;;;;;;;;;;;;;;14.43;52.98;100957.75;6085625;23;7034;-76
2022/03/17 02:47:33;;;;;;;;;;;;;;;14.46;53.39;100957.88;6109450;23;6786;-76
2022/03/17 02:49:59;;;;;;;;;;;;;;;14.50;53.96;100967.50;6110935;23;7113;-76
2022/03/17 02:52:27;;;;;;;;;;;;;;;14.54;53.11;100968.53;6133176;23;6771;-76
2022/03/17 02:54:54;;;;;;;;;;;;;;;14.57;53.69;100972.09;6085981;23;6779;-76
2022/03/17 02:57:20;;;;;;;;;;;;;;;14.64;53.54;100972.34;6111829;23;6875;-76
2022/03/17 02:59:48;;;;;;;;;;;;;;;14.68;53.21;100976.81;6113417;23;6786;-76
2022/03/17 03:02:15;;;;;;;;;;;;;;;14.74;53.19;100979.66;6092661;23;6786;-76
2022/03/17 03:04:41;;;;;;;;;;;;;;;14.79;53.55;100983.31;6116323;23;6787;-76
2022/03/17 03:07:07;;;;;;;;;;;;;;;14.89;54.01;100983.69;6113929;23;7840;-76
2022/03/17 03:09:33;;;;;;;;;;;;;;;15.00;54.51;100987.56;6115584;23;7103;-76
2022/03/17 03:12:00;;;;;;;;;;;;;;;15.11;53.68;100982.81;6114045;23;6771;-76
2022/03/17 03:14:26;;;;;;;;;;;;;;;15.25;54.03;100984.22;6142657;23;6926;-76
2022/03/17 03:16:52;;;;;;;;;;;;;;;15.37;53.80;100991.56;6116933;23;6782;-76
2022/03/17 03:19:18;;;;;;;;;;;;;;;15.49;53.61;100998.03;6115438;23;7163;-76
2022/03/17 03:21:44;;;;;;;;;;;;;;;15.59;53.98;100994.94;6116814;23;6833;-76
2022/03/17 03:24:11;;;;;;;;;;;;;;;15.66;52.97;101003.81;6113973;23;6973;-76
2022/03/17 03:26:42;;;;;;;;;;;;;;;15.73;53.38;101002.31;6118389;23;7087;-76
2022/03/17 03:29:32;;;;;;;;;;;;;;;15.77;53.03;101017.13;6116646;23;6790;-76
2022/03/17 03:32:06;;;;;;;;;;;;;;;15.78;53.51;101016.28;6113213;23;6787;-77
2022/03/17 03:34:33;;;;;;;;;;;;;;;15.77;53.48;101030.06;6117350;23;6778;-76
2022/03/17 03:39:43;;;;;;;;;;;;;;;15.68;53.77;101041.81;6116470;23;6866;-76
2022/03/17 03:42:10;;;;;;;;;;;;;;;15.64;54.55;101039.91;6119007;23;6797;-76
2022/03/17 03:44:37;;;;;;;;;;;;;;;15.61;54.42;101047.56;6093090;23;6775;-76
2022/03/17 03:47:05;;;;;;;;;;;;;;;15.58;55.07;101044.88;6092779;23;6945;-76
2022/03/17 03:49:32;;;;;;;;;;;;;;;15.55;54.97;101057.69;6117433;23;6855;-77
2022/03/17 03:51:57;;;;;;;;;;;;;;;15.51;54.98;101055.78;6115400;23;6774;-77
2022/03/17 03:54:23;;;;;;;;;;;;;;;15.46;55.45;101057.31;6118246;23;6778;-76
2022/03/17 03:56:55;;;;;;;;;;;;;;;15.40;55.84;101066.59;6119407;23;6782;-76
2022/03/17 03:59:26;;;;;;;;;;;;;;;15.38;55.44;101075.09;6119146;23;7005;-76
2022/03/17 04:02:01;;;;;;;;;;;;;;;15.33;55.73;101066.28;6113886;23;6962;-76
2022/03/17 04:04:29;;;;;;;;;;;;;;;15.30;55.81;101074.78;6113781;23;7098;-76
2022/03/17 04:06:58;;;;;;;;;;;;;;;15.28;56.20;101085.06;6111921;23;7112;-76
2022/03/17 04:09:31;;;;;;;;;;;;;;;15.26;56.00;101086.69;6113245;23;7102;-76
2022/03/17 04:11:57;;;;;;;;;;;;;;;15.20;56.90;101088.16;6111260;23;6963;-76
2022/03/17 04:14:23;;;;;;;;;;;;;;;15.19;56.88;101096.72;6113145;23;7851;-77
2022/03/17 04:16:50;;;;;;;;;;;;;;;15.14;57.29;101099.13;6137748;23;6859;-77
2022/03/17 04:19:16;;;;;;;;;;;;;;;15.11;56.99;101107.63;6112456;23;7275;-77
2022/03/17 04:21:46;;;;;;;;;;;;;;;15.09;57.78;101109.28;6114171;23;6790;-76
2022/03/17 04:24:13;;;;;;;;;;;;;;;15.08;57.58;101124.69;6088702;23;7033;-76
2022/03/17 04:26:39;;;;;;;;;;;;;;;15.05;57.82;101119.41;6112423;23;6881;-76
2022/03/17 04:29:06;;;;;;;;;;;;;;;15.00;57.80;101122.66;6107891;23;8019;-76
2022/03/17 04:31:34;;;;;;;;;;;;;;;14.99;58.61;101123.47;6112799;23;7005;-76
2022/03/17 04:34:00;;;;;;;;;;;;;;;14.98;58.02;101120.84;6112914;23;7090;-76
2022/03/17 04:36:26;;;;;;;;;;;;;;;14.95;58.36;101134.50;6137158;23;8034;-77
2022/03/17 04:38:52;;;;;;;;;;;;;;;14.94;58.58;101147.34;6113189;23;6767;-77
2022/03/17 04:41:18;;;;;;;;;;;;;;;14.92;58.40;101170.53;6111659;23;7824;-77
2022/03/17 04:43:45;;;;;;;;;;;;;;;14.89;58.50;101174.66;6087866;23;6779;-77
2022/03/17 04:46:12;;;;;;;;;;;;;;;14.79;58.63;101174.28;6112349;23;7439;-77
2022/03/17 04:48:38;;;;;;;;;;;;;;;14.71;58.26;101186.78;6111851;23;7224;-77
2022/03/17 04:51:06;;;;;;;;;;;;;;;14.64;59.09;101205.41;6110167;23;7122;-77
2022/03/17 04:53:32;;;;;;;;;;;;;;;14.56;58.71;101204.19;6110389;23;6778;-77
2022/03/17 04:56:10;;;;;;;;;;;;;;;14.51;58.71;101209.16;6089130;23;6816;-77
2022/03/17 04:58:41;;;;;;;;;;;;;;;14.43;58.76;101205.34;6112041;23;6980;-77
2022/03/17 05:01:09;;;;;;;;;;;;;;;14.38;58.89;101220.59;6110799;23;6775;-78
2022/03/17 05:03:36;;;;;;;;;;;;;;;14.34;58.46;101231.59;6111757;23;6936;-77
2022/03/17 05:06:03;;;;;;;;;;;;;;;14.32;58.98;101232.34;6110743;23;6783;-77
2022/03/17 05:08:29;;;;;;;;;;;;;;;14.30;58.88;101255.47;6110689;23;7464;-76
2022/03/17 05:10:56;;;;;;;;;;;;;;;14.26;58.99;101259.59;6112566;23;8352;-76
2022/03/17 05:13:23;;;;;;;;;;;;;;;14.22;58.57;101265.44;6112985;23;7009;-76
2022/03/17 05:15:51;;;;;;;;;;;;;;;14.16;58.34;101267.72;6111779;23;6783;-76
2022/03/17 05:18:17;;;;;;;;;;;;;;;14.12;58.12;101281.28;6112551;23;6953;-76
2022/03/17 05:20:43;;;;;;;;;;;;;;;14.07;58.30;101283.63;6111977;23;6783;-76
2022/03/17 05:23:11;;;;;;;;;;;;;;;14.03;57.94;101290.34;6111376;23;6934;-76
2022/03/17 05:25:39;;;;;;;;;;;;;;;14.01;58.96;101299.69;6111829;23;6969;-76
2022/03/17 05:28:09;;;;;;;;;;;;;;;13.98;58.75;101319.28;6113580;23;7097;-76
2022/03/17 05:30:37;;;;;;;;;;;;;;;13.94;58.84;101319.91;6113235;23;6787;-77
2022/03/17 05:33:04;;;;;;;;;;;;;;;13.92;58.88;101334.44;6136190;23;6790;-77
2022/03/17 05:35:31;;;;;;;;;;;;;;;13.86;58.85;101337.59;6112987;23;7064;-77
2022/03/17 05:37:58;;;;;;;;;;;;;;;13.79;58.66;101338.09;6111998;23;7190;-77
2022/03/17 05:40:25;;;;;;;;;;;;;;;13.74;57.99;101355.88;6114557;23;6787;-76
2022/03/17 05:42:58;;;;;;;;;;;;;;;13.67;58.91;101359.84;6088384;23;6786;-76
2022/03/17 05:45:28;;;;;;;;;;;;;;;13.61;58.55;101364.69;6113251;23;6815;-76
2022/03/17 05:48:00;;;;;;;;;;;;;;;13.57;58.68;101375.66;6112531;23;6887;-76
2022/03/17 05:50:33;;;;;;;;;;;;;;;13.51;58.53;101383.03;6113482;23;7115;-76
2022/03/17 05:52:58;;;;;;;;;;;;;;;13.44;58.25;101390.47;6107245;23;6862;-76
2022/03/17 05:55:26;;;;;;;;;;;;;;;13.40;58.87;101396.22;6108362;23;6774;-76
2022/03/17 05:57:54;;;;;;;;;;;;;;;13.36;58.12;101404.59;6089754;23;6945;-76
2022/03/17 06:00:25;;;;;;;;;;;;;;;13.33;59.16;101414.75;6086889;23;7075;-76
2022/03/17 06:02:53;;;;;;;;;;;;;;;13.26;58.95;101413.50;6112008;23;6954;-76
2022/03/17 06:05:19;;;;;;;;;;;;;;;13.22;58.72;101416.75;6113507;23;6782;-76
2022/03/17 06:07:51;;;;;;;;;;;;;;;13.19;58.63;101424.31;6113119;23;7035;-76
2022/03/17 06:10:24;;;;;;;;;;;;;;;13.15;58.81;101433.56;6112045;23;6787;-76
2022/03/17 06:12:54;;;;;;;;;;;;;;;13.12;59.02;101433.38;6111969;23;6782;-76
2022/03/17 06:15:23;;;;;;;;;;;;;;;13.10;58.54;101437.53;6111191;23;7072;-76
2022/03/17 06:17:57;;;;;;;;;;;;;;;13.09;58.73;101446.06;6113595;23;6787;-76
2022/03/17 06:20:29;;;;;;;;;;;;;;;13.10;58.59;101453.00;6088402;23;6867;-76
2022/03/17 06:22:58;;;;;;;;;;;;;;;13.09;59.18;101451.22;6111993;23;6952;-76
2022/03/17 06:25:30;;;;;;;;;;;;;;;13.08;58.78;101475.19;6111803;23;6806;-76
2022/03/17 06:27:56;;;;;;;;;;;;;;;13.08;58.87;101477.75;6111330;23;6862;-76
2022/03/17 06:30:25;;;;;;;;;;;;;;;13.09;58.83;101481.25;6109996;23;6778;-76
2022/03/17 06:32:51;;;;;;;;;;;;;;;13.09;58.71;101487.25;6109789;23;6866;-76
2022/03/17 06:35:24;;;;;;;;;;;;;;;13.09;57.81;101492.41;6110622;23;6833;-75
2022/03/17 06:37:55;;;;;;;;;;;;;;;13.09;58.52;101501.81;6109890;23;6874;-76
2022/03/17 06:40:24;;;;;;;;;;;;;;;13.07;58.23;101509.47;6110627;23;7134;-76
2022/03/17 06:42:51;;;;;;;;;;;;;;;13.04;58.19;101523.03;6107388;23;7106;-76
2022/03/17 06:45:18;;;;;;;;;;;;;;;13.00;57.79;101527.91;6108275;23;6791;-76
2022/03/17 06:47:44;;;;;;;;;;;;;;;12.94;58.44;101533.63;6111132;23;8001;-76
2022/03/17 06:50:12;;;;;;;;;;;;;;;12.90;57.61;101542.84;6114152;23;6790;-76
2022/03/17 06:52:38;;;;;;;;;;;;;;;12.85;58.01;101546.84;6111353;23;8246;-76
2022/03/17 06:55:04;;;;;;;;;;;;;;;12.81;57.69;101546.59;6111054;23;6957;-76
2022/03/17 06:57:30;;;;;;;;;;;;;;;12.76;58.09;101543.75;6110296;23;6786;-76
2022/03/17 06:59:56;;;;;;;;;;;;;;;12.75;57.93;101558.28;6111261;23;6870;-76
2022/03/17 07:02:22;;;;;;;;;;;;;;;12.74;57.87;101571.06;6111189;23;6866;-76
2022/03/17 07:04:47;;;;;;;;;;;;;;;12.73;57.79;101577.00;6112768;23;6837;-76
2022/03/17 07:07:14;;;;;;;;;;;;;;;12.72;57.22;101580.38;6111595;23;6852;-76
2022/03/17 07:09:41;;;;;;;;;;;;;;;12.73;57.79;101589.84;6113325;23;6998;-76
2022/03/17 07:12:08;;;;;;;;;;;;;;;12.72;57.58;101589.00;6111788;23;6853;-76
2022/03/17 07:14:34;;;;;;;;;;;;;;;12.71;57.61;101599.19;6136964;23;6775;-76
2022/03/17 07:17:00;;;;;;;;;;;;;;;12.72;57.10;101606.09;6112149;23;6842;-76
2022/03/17 07:19:25;;;;;;;;;;;;;;;12.70;57.40;101608.59;6110633;23;6934;-76
2022/03/17 07:21:54;;;;;;;;;;;;;;;12.72;56.93;101612.16;6110316;23;6885;-76
2022/03/17 07:24:20;;;;;;;;;;;;;;;12.73;56.93;101619.06;6088990;23;6960;-76
2022/03/17 07:26:45;;;;;;;;;;;;;;;12.75;57.05;101625.16;6135792;23;6778;-76
2022/03/17 07:29:11;;;;;;;;;;;;;;;12.76;56.47;101620.94;6111644;23;6940;-77
2022/03/17 07:31:37;;;;;;;;;;;;;;;12.74;57.27;101628.53;6109540;23;6771;-76
2022/03/17 07:34:03;;;;;;;;;;;;;;;12.75;57.01;101630.31;6112432;23;6782;-76
2022/03/17 07:36:29;;;;;;;;;;;;;;;12.77;57.16;101630.41;6109588;23;7058;-76
2022/03/17 07:38:57;;;;;;;;;;;;;;;12.78;56.63;101639.91;6112688;23;7366;-76
2022/03/17 07:41:24;;;;;;;;;;;;;;;12.81;56.81;101646.94;6110835;23;6946;-76
2022/03/17 07:43:51;;;;;;;;;;;;;;;12.82;56.57;101659.84;6089804;23;6787;-76
2022/03/17 07:46:18;;;;;;;;;;;;;;;12.86;57.16;101664.41;6113946;23;6778;-76
2022/03/17 07:48:44;;;;;;;;;;;;;;;12.90;56.92;101670.63;6114460;23;7823;-76
2022/03/17 07:51:11;;;;;;;;;;;;;;;12.94;56.65;101663.94;6114549;23;6798;-76
2022/03/17 07:53:38;;;;;;;;;;;;;;;12.98;56.47;101677.09;6113239;23;7150;-75
2022/03/17 07:56:06;;;;;;;;;;;;;;;12.99;56.95;101677.97;6111821;23;8541;-76
2022/03/17 07:58:33;;;;;;;;;;;;;;;12.99;56.46;101685.72;6137559;23;6783;-76
2022/03/17 08:01:01;;;;;;;;;;;;;;;13.01;56.13;101686.69;6113882;23;6855;-76
2022/03/17 08:03:27;;;;;;;;;;;;;;;13.02;56.63;101688.44;6138345;23;6779;-76
2022/03/17 08:05:53;;;;;;;;;;;;;;;13.05;56.63;101698.94;6114336;23;6759;-76
2022/03/17 08:08:19;;;;;;;;;;;;;;;13.08;56.85;101696.53;6090200;23;7150;-76
2022/03/17 08:10:45;;;;;;;;;;;;;;;13.13;56.38;101704.53;6113823;23;6779;-76
2022/03/17 08:13:12;;;;;;;;;;;;;;;13.12;56.51;101710.47;6112840;23;6812;-76
2022/03/17 08:15:40;;;;;;;;;;;;;;;13.10;56.71;101709.50;6089090;23;7166;-76
2022/03/17 08:18:07;;;;;;;;;;;;;;;13.10;56.82;101715.53;6113149;23;7086;-76
2022/03/17 08:20:38;;;;;;;;;;;;;;;13.08;56.64;101727.44;6114737;23;6783;-76
2022/03/17 08:23:03;;;;;;;;;;;;;;;13.04;56.46;101728.06;6112178;23;7212;-76
2022/03/17 08:25:29;;;;;;;;;;;;;;;13.00;56.45;101733.81;6111792;23;7796;-76
2022/03/17 08:27:55;;;;;;;;;;;;;;;12.96;56.94;101732.72;6114407;23;6834;-76
2022/03/17 08:30:22;;;;;;;;;;;;;;;12.91;56.40;101745.31;6112173;23;7407;-76
2022/03/17 08:32:48;;;;;;;;;;;;;;;12.86;56.96;101751.00;6086857;23;7110;-76
2022/03/17 08:35:15;;;;;;;;;;;;;;;12.82;56.92;101749.91;6112643;23;6787;-76
2022/03/17 08:37:45;;;;;;;;;;;;;;;12.80;57.09;101761.81;6111990;23;7083;-76
2022/03/17 08:40:13;;;;;;;;;;;;;;;12.79;56.85;101772.88;6113004;23;6775;-76
2022/03/17 08:42:42;;;;;;;;;;;;;;;12.76;56.28;101772.72;6112722;23;6861;-76
2022/03/17 08:50:42;;;;;;;;;;;;;;;12.70;57.08;101780.94;6113129;23;7214;-76
2022/03/17 08:53:08;;;;;;;;;;;;;;;12.74;56.63;101792.28;6113755;23;6867;-76
2022/03/17 08:55:36;;;;;;;;;;;;;;;12.80;57.15;101797.81;6111734;23;6838;-76
2022/03/17 08:58:06;;;;;;;;;;;;;;;12.87;57.42;101799.97;6113570;23;7093;-76
2022/03/17 09:00:34;;;;;;;;;;;;;;;12.99;57.35;101801.50;6109277;23;6787;-76
2022/03/17 09:03:02;;;;;;;;;;;;;;;13.11;56.84;101809.09;6112353;23;7223;-76
2022/03/17 09:05:30;;;;;;;;;;;;;;;13.25;57.00;101812.50;6113449;23;7011;-76
2022/03/17 09:07:56;;;;;;;;;;;;;;;13.42;57.07;101814.38;6111788;23;6883;-76
2022/03/17 09:10:23;;;;;;;;;;;;;;;13.54;56.22;101819.38;6114441;23;7128;-76
2022/03/17 09:12:54;;;;;;;;;;;;;;;13.63;56.06;101819.06;6111312;23;6867;-75
2022/03/17 09:15:20;;;;;;;;;;;;;;;13.67;55.13;101828.72;6088431;23;6779;-75
2022/03/17 09:17:45;;;;;;;;;;;;;;;13.67;54.54;101823.56;6112942;23;6902;-75
2022/03/17 09:20:15;;;;;;;;;;;;;;;13.64;55.44;101827.66;6112864;23;7098;-75
2022/03/17 09:22:44;;;;;;;;;;;;;;;13.61;54.63;101836.97;6111423;23;7228;-76
2022/03/17 09:25:11;;;;;;;;;;;;;;;13.59;54.62;101840.25;6112449;23;7039;-76
2022/03/17 09:27:37;;;;;;;;;;;;;;;13.57;54.31;101840.19;6111870;23;7309;-76
2022/03/17 09:30:05;;;;;;;;;;;;;;;13.56;54.36;101846.13;6110955;23;6867;-76
2022/03/17 09:32:31;;;;;;;;;;;;;;;13.55;54.92;101853.78;6109946;23;7043;-76
2022/03/17 09:34:58;;;;;;;;;;;;;;;13.56;55.10;101850.41;6087322;23;6950;-75
2022/03/17 09:37:25;;;;;;;;;;;;;;;13.62;54.06;101853.34;6111682;23;6972;-75
2022/03/17 09:39:51;;;;;;;;;;;;;;;13.66;54.49;101857.88;6111419;23;6949;-75
2022/03/17 09:42:20;;;;;;;;;;;;;;;13.69;53.83;101868.34;6111822;23;7163;-76
2022/03/17 09:44:52;;;;;;;;;;;;;;;13.72;53.75;101870.22;6112748;23;6782;-76
2022/03/17 09:47:22;;;;;;;;;;;;;;;13.74;54.17;101874.66;6112421;23;6787;-76
2022/03/17 09:49:51;;;;;;;;;;;;;;;13.75;54.11;101867.81;6115794;23;6866;-76
2022/03/17 09:52:17;;;;;;;;;;;;;;;13.75;53.90;101889.31;6110731;23;6858;-76
2022/03/17 09:54:45;;;;;;;;;;;;;;;13.79;52.91;101892.06;6113954;23;6946;-76
2022/03/17 09:57:11;;;;;;;;;;;;;;;13.84;53.76;101882.94;6111224;23;6783;-76
2022/03/17 09:59:37;;;;;;;;;;;;;;;13.85;53.55;101885.56;6113884;23;6855;-76
2022/03/17 10:02:03;;;;;;;;;;;;;;;13.88;53.32;101890.94;6109914;23;6774;-76
2022/03/17 10:04:39;;;;;;;;;;;;;;;13.93;52.44;101896.34;6113831;23;8244;-76
2022/03/17 10:07:07;;;;;;;;;;;;;;;13.97;53.05;101898.28;6112455;23;8067;-76
2022/03/17 10:09:32;;;;;;;;;;;;;;;14.00;52.74;101895.03;6113024;23;7019;-76
2022/03/17 10:12:09;;;;;;;;;;;;;;;14.05;52.96;101903.91;6111194;23;6979;-76
2022/03/17 10:14:48;;;;;;;;;;;;;;;14.12;52.57;101905.16;6111280;23;6790;-77
2022/03/17 10:17:38;;;;;;;;;;;;;;;14.26;52.66;101911.09;6110735;23;7023;-76
2022/03/17 10:20:22;;;;;;;;;;;;;;;14.35;52.40;101913.31;6111197;23;6816;-76
2022/03/17 10:22:58;;;;;;;;;;;;;;;14.46;51.57;101919.09;6086942;23;7005;-76
2022/03/17 10:25:26;;;;;;;;;;;;;;;14.54;51.20;101923.00;6112874;23;7054;-76
2022/03/17 10:27:56;;;;;;;;;;;;;;;14.67;51.30;101921.94;6111281;23;7083;-76
2022/03/17 10:30:35;;;;;;;;;;;;;;;14.77;51.35;101926.84;6110930;23;6775;-76
2022/03/17 10:33:21;;;;;;;;;;;;;;;14.88;49.65;101929.16;6109706;23;6918;-76
2022/03/17 10:35:49;;;;;;;;;;;;;;;14.93;50.23;101926.03;6136634;23;6783;-76
2022/03/17 10:38:18;;;;;;;;;;;;;;;15.01;49.77;101934.19;6111451;23;6962;-77
2022/03/17 10:41:02;;;;;;;;;;;;;;;15.11;48.86;101927.81;6113257;23;6874;-77
2022/03/17 10:43:29;;;;;;;;;;;;;;;15.21;48.99;101932.69;6112142;23;6987;-77
2022/03/17 10:46:11;;;;;;;;;;;;;;;15.33;49.35;101932.41;6111045;23;6779;-77
2022/03/17 10:48:56;;;;;;;;;;;;;;;15.45;49.34;101939.03;6113296;23;6859;-76
2022/03/17 10:51:43;;;;;;;;;;;;;;;15.52;49.39;101951.47;6135235;23;8913;-75
2022/03/17 10:54:20;;;;;;;;;;;;;;;15.51;47.82;101948.03;6112434;23;6955;-75
2022/03/17 10:57:05;;;;;;;;;;;;;;;15.53;48.82;101956.75;6112521;23;6782;-75
2022/03/17 10:59:47;;;;;;;;;;;;;;;15.62;48.53;101958.91;6110783;23;6783;-75
2022/03/17 11:02:24;;;;;;;;;;;;;;;15.71;48.21;101955.94;6108951;23;6786;-76
2022/03/17 11:04:51;;;;;;;;;;;;;;;15.77;48.06;101963.09;6112915;23;6779;-76
2022/03/17 11:07:19;;;;;;;;;;;;;;;15.86;48.24;101973.94;6112591;23;7011;-76
2022/03/17 11:09:47;;;;;;;;;;;;;;;15.92;47.79;101979.41;6111010;23;6837;-77
2022/03/17 11:12:17;;;;;;;;;;;;;;;15.97;47.13;101979.66;6111095;23;6838;-76
2022/03/17 11:14:53;;;;;;;;;;;;;;;15.98;46.84;101977.97;6112154;23;7315;-76
2022/03/17 11:17:36;;;;;;;;;;;;;;;15.94;46.70;101982.09;6112578;23;6786;-76
2022/03/17 11:20:10;;;;;;;;;;;;;;;15.95;46.74;101986.44;6115615;23;7265;-76
2022/03/17 11:22:39;;;;;;;;;;;;;;;15.98;46.62;101988.31;6111081;23;7092;-76
2022/03/17 11:25:25;;;;;;;;;;;;;;;15.99;46.45;101992.69;6113454;23;7215;-76
2022/03/17 11:27:59;;;;;;;;;;;;;;;15.98;46.68;101991.78;6138319;23;6783;-76
2022/03/17 11:30:58;;;;;;;;;;;;;;;16.02;46.17;102000.56;6136597;23;6783;-76
2022/03/17 11:33:28;;;;;;;;;;;;;;;16.08;46.53;101991.47;6112931;23;6949;-76
2022/03/17 11:36:01;;;;;;;;;;;;;;;16.14;46.15;101998.63;6113367;23;6855;-76
2022/03/17 11:38:38;;;;;;;;;;;;;;;16.22;45.82;102002.50;6114211;23;6790;-76
2022/03/17 11:41:16;;;;;;;;;;;;;;;16.33;45.92;102002.16;6112676;23;6937;-76
2022/03/17 11:44:01;;;;;;;;;;;;;;;16.57;45.63;102014.53;6114055;23;6963;-76
2022/03/17 11:46:46;;;;;;;;;;;;;;;16.81;45.44;102009.63;6115528;23;6779;-76
2022/03/17 11:49:21;;;;;;;;;;;;;;;17.03;44.84;102006.41;6113554;23;7059;-76
2022/03/17 11:52:03;;;;;;;;;;;;;;;17.13;44.08;102014.63;6111721;23;6779;-76
2022/03/17 11:54:31;;;;;;;;;;;;;;;17.07;43.74;102018.69;6112839;23;6795;-76
2022/03/17 11:57:00;;;;;;;;;;;;;;;16.98;42.79;102023.38;6112020;23;6783;-76
2022/03/17 11:59:49;;;;;;;;;;;;;;;16.86;42.36;102022.81;6113689;23;6778;-76
2022/03/17 12:02:16;;;;;;;;;;;;;;;16.82;42.48;102036.44;6112743;23;7001;-76
2022/03/17 12:04:51;;;;;;;;;;;;;;;16.75;42.12;102033.53;6088722;23;6771;-76
2022/03/17 12:07:20;;;;;;;;;;;;;;;16.70;42.11;102037.59;6113073;23;6853;-76
2022/03/17 12:09:47;;;;;;;;;;;;;;;16.68;41.80;102033.19;6112597;23;7015;-76
2022/03/17 12:12:27;;;;;;;;;;;;;;;16.68;41.66;102033.19;6113070;23;6778;-76
2022/03/17 12:14:56;;;;;;;;;;;;;;;16.60;41.56;102046.63;6113543;23;6771;-76
2022/03/17 12:17:23;;;;;;;;;;;;;;;16.50;41.55;102040.09;6113426;23;6779;-76
2022/03/17 12:20:14;;;;;;;;;;;;;;;16.41;41.33;102037.03;6114398;23;6787;-76
2022/03/17 12:22:44;;;;;;;;;;;;;;;16.41;41.32;102037.03;6113579;23;7103;-76
2022/03/17 12:25:22;;;;;;;;;;;;;;;16.42;41.24;102040.53;6111688;23;7167;-76
2022/03/17 12:27:56;;;;;;;;;;;;;;;16.43;41.01;102045.78;6089296;23;6850;-76
2022/03/17 12:30:25;;;;;;;;;;;;;;;16.44;41.27;102044.06;6113763;23;6925;-76
2022/03/17 12:32:59;;;;;;;;;;;;;;;16.48;40.68;102062.41;6111694;23;7258;-76
2022/03/17 12:35:30;;;;;;;;;;;;;;;16.50;40.90;102063.38;6112695;23;6982;-76
2022/03/17 12:38:08;;;;;;;;;;;;;;;16.45;41.10;102066.53;6113109;23;6967;-76
2022/03/17 12:40:43;;;;;;;;;;;;;;;16.39;40.58;102059.38;6113606;23;6830;-76
2022/03/17 12:43:17;;;;;;;;;;;;;;;16.35;40.66;102058.31;6112883;23;6782;-76
2022/03/17 12:45:49;;;;;;;;;;;;;;;16.29;40.60;102070.06;6112380;23;7140;-76
2022/03/17 12:48:16;;;;;;;;;;;;;;;16.26;40.59;102054.38;6114354;23;6806;-76
2022/03/17 12:50:42;;;;;;;;;;;;;;;16.20;40.61;102055.84;6112015;23;6774;-76
2022/03/17 12:53:09;;;;;;;;;;;;;;;16.12;40.90;102051.97;6109971;23;8233;-76
2022/03/17 12:55:36;;;;;;;;;;;;;;;16.07;40.54;102062.06;6112479;23;6949;-76
2022/03/17 12:58:04;;;;;;;;;;;;;;;16.07;40.83;102061.19;6112098;23;6779;-76
2022/03/17 13:00:31;;;;;;;;;;;;;;;16.05;40.73;102061.09;6110365;23;6786;-76
2022/03/17 13:03:01;;;;;;;;;;;;;;;15.99;40.43;102072.84;6088240;23;7242;-76
2022/03/17 13:08:15;;;;;;;;;;;;;;;15.75;41.25;102075.88;6114092;23;6854;-76
2022/03/17 13:16:14;;;;;;;;;;;;;;;15.54;41.02;102074.78;6114172;23;6962;-76
2022/03/17 13:18:50;;;;;;;;;;;;;;;15.49;41.38;102065.88;6113465;23;6889;-76
2022/03/17 13:21:22;;;;;;;;;;;;;;;15.46;40.91;102072.63;6111878;23;6969;-77
2022/03/17 13:23:51;;;;;;;;;;;;;;;15.47;41.62;102072.69;6110148;23;6963;-76